createdAt,value
2018-11-25T06:33:47.574Z,76.28
2018-11-25T06:36:44.444Z,92.70
2018-11-25T06:39:43.055Z,73.75
2018-11-25T06:42:40.364Z,85.12
2018-11-25T06:45:47.340Z,70.67
2018-11-25T06:49:05.582Z,70.20
2018-11-25T06:52:14.285Z,81.92
2018-11-25T06:55:24.961Z,81.02
2018-11-25T06:58:33.829Z,103.85
2018-11-25T07:01:39.527Z,85.38
2018-11-25T07:04:37.008Z,75.62
2018-11-25T07:07:35.676Z,82.05
2018-11-25T07:10:32.975Z,86.57
2018-11-25T07:13:30.118Z,116.15
2018-11-25T07:16:26.874Z,83.25
2018-11-25T07:19:23.506Z,77.40
2018-11-25T07:22:19.890Z,76.87
2018-11-25T07:25:23.381Z,77.22
2018-11-25T07:28:19.584Z,74.53
2018-11-25T07:31:16.606Z,82.33
2018-11-25T07:34:13.130Z,83.52
2018-11-25T07:37:27.524Z,78.80
2018-11-25T07:40:24.480Z,89.35
2018-11-25T07:43:24.631Z,78.52
2018-11-25T07:46:17.857Z,90.42
2018-11-25T07:49:14.379Z,87.40
2018-11-25T07:52:10.687Z,90.00
2018-11-25T07:55:07.018Z,91.15
2018-11-25T07:58:03.819Z,74.75
2018-11-25T08:01:00.238Z,87.75
2018-11-25T08:03:59.748Z,88.60
2018-11-25T08:06:56.418Z,86.75
2018-11-25T08:09:52.356Z,76.60
2018-11-25T08:12:48.719Z,77.17
2018-11-25T08:15:44.731Z,79.00
2018-11-25T08:18:41.239Z,79.90
2018-11-25T08:21:37.810Z,77.37
2018-11-25T08:24:34.899Z,76.02
2018-11-25T08:27:34.479Z,72.55
2018-11-25T08:30:30.614Z,68.47
2018-11-25T08:33:26.359Z,76.77
2018-11-25T08:36:23.020Z,62.50
2018-11-25T08:39:20.013Z,68.20
2018-11-25T08:42:15.903Z,67.10
2018-11-25T08:45:12.945Z,72.45
2018-11-25T08:48:09.294Z,80.47
2018-11-25T08:51:05.396Z,83.05
2018-11-25T08:54:01.824Z,65.15
2018-11-25T08:56:58.566Z,73.67
2018-11-25T08:59:54.884Z,81.63
2018-11-25T09:02:51.207Z,73.42
2018-11-25T09:05:48.026Z,61.20
2018-11-25T09:08:47.019Z,70.17
2018-11-25T09:11:44.195Z,66.45
2018-11-25T09:14:40.918Z,66.55
2018-11-25T09:17:37.405Z,61.00
2018-11-25T09:20:33.745Z,65.52
2018-11-25T09:23:30.315Z,72.42
2018-11-25T09:26:26.563Z,68.00
2018-11-25T09:29:23.464Z,61.60
2018-11-25T09:32:23.148Z,65.60
2018-11-25T09:35:16.427Z,62.55
2018-11-25T09:38:12.647Z,67.87
2018-11-25T09:41:08.746Z,64.03
2018-11-25T09:44:05.130Z,58.35
2018-11-25T09:47:01.740Z,67.62
2018-11-25T09:50:00.250Z,56.35
2018-11-25T09:52:56.517Z,66.62
2018-11-25T09:55:52.938Z,57.10
2018-11-25T09:58:49.387Z,53.83
2018-11-25T10:01:46.012Z,61.50
2018-11-25T10:04:42.219Z,62.10
2018-11-25T10:07:38.415Z,60.83
2018-11-25T10:10:34.782Z,54.77
2018-11-25T10:13:31.453Z,69.53
2018-11-25T10:16:28.077Z,68.60
2018-11-25T10:19:24.322Z,59.67
2018-11-25T10:22:20.330Z,60.48
2018-11-25T10:25:17.460Z,63.85
2018-11-25T10:28:14.098Z,73.87
2018-11-25T10:31:10.599Z,62.10
2018-11-25T10:34:07.540Z,69.27
2018-11-25T10:37:04.331Z,67.15
2018-11-25T10:40:00.978Z,61.35
2018-11-25T10:42:57.375Z,67.65
2018-11-25T10:45:53.796Z,65.97
2018-11-25T10:48:54.252Z,81.37
2018-11-25T10:51:46.936Z,62.53
2018-11-25T10:54:43.470Z,65.15
2018-11-25T10:57:39.444Z,79.27
2018-11-25T11:00:53.793Z,68.83
2018-11-25T11:04:01.356Z,81.50
2018-11-25T11:07:14.002Z,72.35
2018-11-25T11:10:10.869Z,76.42
2018-11-25T11:13:07.111Z,62.40
2018-11-25T11:16:03.972Z,72.17
2018-11-25T11:19:00.018Z,85.62
2018-11-25T11:21:56.377Z,83.37
2018-11-25T11:24:52.692Z,85.00
2018-11-25T11:27:48.798Z,70.47
2018-11-25T11:30:48.694Z,66.02
2018-11-25T11:33:44.800Z,97.47
2018-11-25T11:36:40.965Z,78.10
2018-11-25T11:39:38.077Z,87.15
2018-11-25T11:42:34.501Z,77.65
2018-11-25T11:45:31.608Z,94.15
2018-11-25T11:48:28.232Z,101.67
2018-11-25T11:51:27.341Z,93.55
2018-11-25T11:54:23.356Z,94.52
2018-11-25T11:57:19.520Z,92.37
2018-11-25T12:00:26.454Z,86.37
2018-11-25T12:03:26.623Z,102.32
2018-11-25T12:06:19.259Z,116.08
2018-11-25T12:09:16.254Z,96.82
2018-11-25T12:12:12.778Z,102.80
2018-11-25T12:15:08.808Z,112.80
2018-11-25T12:18:05.546Z,111.45
2018-11-25T12:21:05.086Z,100.20
2018-11-25T12:24:01.460Z,124.05
2018-11-25T12:26:57.996Z,106.20
2018-11-25T12:29:54.582Z,120.97
2018-11-25T12:32:52.107Z,117.00
2018-11-25T12:35:48.785Z,130.50
2018-11-25T12:38:45.340Z,132.75
2018-11-25T12:41:42.012Z,110.20
2018-11-25T12:44:38.585Z,103.58
2018-11-25T12:47:34.738Z,113.62
2018-11-25T12:50:32.523Z,117.47
2018-11-25T12:53:29.128Z,155.07
2018-11-25T12:56:25.481Z,140.12
2018-11-25T12:59:21.630Z,143.70
2018-11-25T13:02:18.272Z,134.80
2018-11-25T13:05:15.161Z,118.67
2018-11-25T13:08:14.722Z,160.22
2018-11-25T13:11:11.491Z,156.10
2018-11-25T13:14:07.680Z,157.72
2018-11-25T13:17:03.953Z,161.52
2018-11-25T13:20:03.159Z,140.22
2018-11-25T13:22:59.749Z,160.55
2018-11-25T13:25:56.027Z,139.05
2018-11-25T13:28:52.657Z,144.02
2018-11-25T13:31:49.139Z,149.68
2018-11-25T13:34:45.212Z,158.03
2018-11-25T13:37:41.288Z,149.60
2018-11-25T13:40:38.211Z,157.95
2018-11-25T13:43:34.518Z,145.68
2018-11-25T13:46:30.671Z,196.20
2018-11-25T13:49:27.297Z,261.57
2018-11-25T13:52:23.647Z,261.48
2018-11-25T13:55:24.604Z,259.98
2018-11-25T13:58:21.008Z,225.78
2018-11-25T14:01:17.204Z,217.85
2018-11-25T14:04:13.494Z,267.07
2018-11-25T14:07:10.386Z,554.90
2018-11-25T14:10:06.594Z,786.70
2018-11-25T14:13:02.849Z,1258.15
2018-11-25T14:15:59.037Z,1070.98
2018-11-25T14:18:58.454Z,960.07
2018-11-25T14:21:55.099Z,567.37
2018-11-25T14:24:52.053Z,316.40
2018-11-25T14:27:48.734Z,378.48
2018-11-25T14:30:45.665Z,289.35
2018-11-25T14:33:41.568Z,254.65
2018-11-25T14:36:38.406Z,345.82
2018-11-25T14:39:35.328Z,419.65
2018-11-25T14:42:32.680Z,464.07
2018-11-25T14:45:29.437Z,429.20
2018-11-25T14:48:26.212Z,426.57
2018-11-25T14:51:22.619Z,332.15
2018-11-25T14:54:20.159Z,317.52
2018-11-25T14:57:16.572Z,320.80
2018-11-25T15:00:18.879Z,304.25
2018-11-25T15:03:15.954Z,303.73
2018-11-25T15:06:12.432Z,277.32
2018-11-25T15:09:09.317Z,336.57
2018-11-25T15:12:06.156Z,338.92
2018-11-25T15:15:02.194Z,349.90
2018-11-25T15:17:58.722Z,337.77
2018-11-25T15:20:55.030Z,360.98
2018-11-25T15:23:51.113Z,339.90
2018-11-25T15:26:47.312Z,332.62
2018-11-25T15:29:43.689Z,327.60
2018-11-25T15:32:40.407Z,372.63
2018-11-25T15:35:37.518Z,386.18
2018-11-25T15:38:34.796Z,351.65
2018-11-25T15:41:32.096Z,366.33
2018-11-25T15:44:29.863Z,337.10
2018-11-25T15:47:27.270Z,387.40
2018-11-25T15:50:29.456Z,346.57
2018-11-25T15:53:26.635Z,276.60
2018-11-25T15:56:23.790Z,254.38
2018-11-25T15:59:20.788Z,262.50
2018-11-25T16:02:17.807Z,248.72
2018-11-25T16:05:16.151Z,250.85
2018-11-25T16:08:12.858Z,242.37
2018-11-25T16:11:09.987Z,268.52
2018-11-25T16:14:06.872Z,240.35
2018-11-25T16:17:04.563Z,264.12
2018-11-25T16:20:01.305Z,287.52
2018-11-25T16:23:22.389Z,263.65
2018-11-25T16:26:24.671Z,298.18
2018-11-25T16:29:26.602Z,264.40
2018-11-25T16:32:22.686Z,249.15
2018-11-25T16:35:19.145Z,256.93
2018-11-25T16:38:16.061Z,228.27
2018-11-25T16:41:12.120Z,230.37
2018-11-25T16:44:08.343Z,262.72
2018-11-25T16:47:05.052Z,221.13
2018-11-25T16:50:00.865Z,228.95
2018-11-25T16:52:57.446Z,228.58
2018-11-25T16:55:53.420Z,264.80
2018-11-25T16:58:49.793Z,284.70
2018-11-25T17:01:46.187Z,273.80
2018-11-25T17:04:42.596Z,278.23
2018-11-25T17:07:41.589Z,241.12
2018-11-25T17:10:38.425Z,251.30
2018-11-25T17:13:35.288Z,291.88
2018-11-25T17:16:31.857Z,281.27
2018-11-25T17:19:28.121Z,240.15
2018-11-25T17:22:24.443Z,234.45
2018-11-25T17:25:20.951Z,243.93
2018-11-25T17:28:20.092Z,208.05
2018-11-25T17:31:16.725Z,227.70
2018-11-25T17:34:13.354Z,260.38
2018-11-25T17:37:10.543Z,250.07
2018-11-25T17:40:07.005Z,227.28
2018-11-25T17:43:03.435Z,217.70
2018-11-25T17:46:00.592Z,189.47
2018-11-25T17:48:57.259Z,199.17
2018-11-25T17:51:53.871Z,192.85
2018-11-25T17:54:50.189Z,206.82
2018-11-25T17:57:46.581Z,207.32
2018-11-25T18:00:58.606Z,191.32
2018-11-25T18:03:57.699Z,181.45
2018-11-25T18:06:53.686Z,205.83
2018-11-25T18:09:49.678Z,197.90
2018-11-25T18:12:45.799Z,192.40
2018-11-25T18:15:41.979Z,209.25
2018-11-25T18:18:52.472Z,229.43
2018-11-25T18:21:48.606Z,213.92
2018-11-25T18:24:45.504Z,223.75
2018-11-25T18:27:42.131Z,226.22
2018-11-25T18:30:38.218Z,214.20
2018-11-25T18:33:35.165Z,217.72
2018-11-25T18:36:32.132Z,223.20
2018-11-25T18:39:28.181Z,195.18
2018-11-25T18:42:24.801Z,180.85
2018-11-25T18:45:25.174Z,175.95
2018-11-25T18:48:22.577Z,187.92
2018-11-25T18:51:19.240Z,174.97
2018-11-25T18:54:16.159Z,168.00
2018-11-25T18:57:12.715Z,181.37
2018-11-25T19:00:11.548Z,169.32
2018-11-25T19:03:07.572Z,183.62
2018-11-25T19:06:03.912Z,178.40
2018-11-25T19:09:00.386Z,190.68
2018-11-25T19:11:56.689Z,187.80
2018-11-25T19:14:52.980Z,185.18
2018-11-25T19:17:49.623Z,149.05
2018-11-25T19:20:49.305Z,152.32
2018-11-25T19:23:45.656Z,153.00
2018-11-25T19:26:41.712Z,151.35
2018-11-25T19:29:37.904Z,155.00
2018-11-25T19:32:35.265Z,147.00
2018-11-25T19:35:31.537Z,152.38
2018-11-25T19:38:27.781Z,171.57
2018-11-25T19:41:24.445Z,148.22
2018-11-25T19:44:21.053Z,143.15
2018-11-25T19:47:17.461Z,145.68
2018-11-25T19:50:20.913Z,156.15
2018-11-25T19:53:17.758Z,162.90
2018-11-25T19:56:13.997Z,160.12
2018-11-25T19:59:22.649Z,154.87
2018-11-25T20:02:11.203Z,165.77
2018-11-25T20:05:08.121Z,153.68
2018-11-25T20:08:05.076Z,157.60
2018-11-25T20:11:02.018Z,147.80
2018-11-25T20:13:59.115Z,142.60
2018-11-25T20:17:11.806Z,151.27
2018-11-25T20:20:08.649Z,148.13
2018-11-25T20:23:05.291Z,151.40
2018-11-25T20:26:02.125Z,146.37
2018-11-25T20:28:58.931Z,151.20
2018-11-25T20:32:11.730Z,155.60
2018-11-25T20:35:08.942Z,150.55
2018-11-25T20:38:22.185Z,140.70
2018-11-25T20:41:24.319Z,144.93
2018-11-25T20:44:21.143Z,148.22
2018-11-25T20:47:17.794Z,155.00
2018-11-25T20:50:16.435Z,150.82
2018-11-25T20:53:30.164Z,139.57
2018-11-25T20:56:29.578Z,145.77
2018-11-25T20:59:26.364Z,160.25
2018-11-25T21:02:28.976Z,239.55
2018-11-25T21:05:19.820Z,305.25
2018-11-25T21:08:17.286Z,344.75
2018-11-25T21:11:13.557Z,361.25
2018-11-25T21:14:10.784Z,373.80
2018-11-25T21:17:07.294Z,362.30
2018-11-25T21:20:03.915Z,363.02
2018-11-25T21:23:00.214Z,371.43
2018-11-25T21:25:56.608Z,383.50
2018-11-25T21:28:53.238Z,400.27
2018-11-25T21:31:49.699Z,372.70
2018-11-25T21:34:45.847Z,359.12
2018-11-25T21:37:42.466Z,378.90
2018-11-25T21:40:39.496Z,341.70
2018-11-25T21:43:35.615Z,330.57
2018-11-25T21:46:32.100Z,345.45
2018-11-25T21:49:28.915Z,336.40
2018-11-25T21:52:24.925Z,332.40
2018-11-25T21:55:24.429Z,339.68
2018-11-25T21:58:20.683Z,330.60
2018-11-25T22:01:17.045Z,319.57
2018-11-25T22:04:13.432Z,334.37
2018-11-25T22:07:10.102Z,368.27
2018-11-25T22:10:09.707Z,362.40
2018-11-25T22:13:05.989Z,345.37
2018-11-25T22:16:05.439Z,344.85
2018-11-25T22:19:02.302Z,340.73
2018-11-25T22:21:57.870Z,330.30
2018-11-25T22:24:54.210Z,366.52
2018-11-25T22:27:50.323Z,376.23
2018-11-25T22:30:46.435Z,378.37
2018-11-25T22:33:42.846Z,364.98
2018-11-25T22:36:39.972Z,382.50
2018-11-25T22:39:36.300Z,380.73
2018-11-25T22:42:32.698Z,375.13
2018-11-25T22:45:29.119Z,353.48
2018-11-25T22:48:25.280Z,373.68
2018-11-25T22:51:21.895Z,394.02
2018-11-25T22:54:18.737Z,387.75
2018-11-25T22:57:15.075Z,368.50
2018-11-25T23:00:33.311Z,401.33
2018-11-25T23:03:30.317Z,389.15
2018-11-25T23:07:04.688Z,414.67
2018-11-25T23:10:01.195Z,369.20
2018-11-25T23:12:57.374Z,363.98
2018-11-25T23:15:53.238Z,361.35
2018-11-25T23:18:49.440Z,346.15
2018-11-25T23:21:45.703Z,341.42
2018-11-25T23:24:42.518Z,324.65
2018-11-25T23:27:39.209Z,338.10
2018-11-25T23:30:36.003Z,337.17
2018-11-25T23:33:35.298Z,341.55
2018-11-25T23:36:31.956Z,324.12
2018-11-25T23:39:28.661Z,335.13
2018-11-25T23:42:25.400Z,345.25
2018-11-25T23:45:22.428Z,351.12
2018-11-25T23:48:18.989Z,320.02
2018-11-25T23:51:15.121Z,362.77
2018-11-25T23:54:12.884Z,324.77
2018-11-25T23:57:11.825Z,331.17
